Time;durP1;ratioP1;P1;durP2;ratioP2;P2;SDS_P1;SDS_P2;PMS_P1;PMS_P2;Temp;Humidity;BMP_temperature;BMP_pressure;BME280_temperature;BME280_humidity;BME280_pressure;Samples;Min_cycle;Max_cycle;Signal;HPM_P1;HPM_P2
2023/03/11 00:02:02;;;;;;;;;10.00;10.00;;;;;3.98;74.58;100678.88;5118379;27;45209;-63
2023/03/11 00:04:27;;;;;;;;;22.33;21.00;;;;;3.95;74.43;100670.16;5118610;27;45219;-62
2023/03/11 00:06:52;;;;;;;;;13.67;12.67;;;;;3.95;74.44;100672.78;5118534;27;45164;-63
2023/03/11 00:09:18;;;;;;;;;13.00;12.67;;;;;3.90;75.30;100658.88;5118271;27;47377;-63
2023/03/11 00:11:43;;;;;;;;;13.00;12.67;;;;;3.96;75.44;100669.31;5118204;27;45400;-63
2023/03/11 00:14:08;;;;;;;;;21.00;12.67;;;;;3.92;75.98;100665.84;5118393;27;45247;-63
2023/03/11 00:16:34;;;;;;;;;14.67;11.00;;;;;3.94;75.34;100663.25;5118520;27;45360;-63
2023/03/11 00:18:59;;;;;;;;;15.33;12.00;;;;;3.89;76.23;100663.19;5117770;27;47081;-63
2023/03/11 00:21:24;;;;;;;;;18.00;12.33;;;;;3.85;75.50;100656.28;5118380;27;45263;-63
2023/03/11 00:23:50;;;;;;;;;19.00;12.00;;;;;3.89;75.79;100660.59;5118164;27;45367;-63
2023/03/11 00:26:15;;;;;;;;;23.00;15.33;;;;;3.83;75.20;100668.41;5118538;27;45208;-63
2023/03/11 00:28:41;;;;;;;;;14.67;12.67;;;;;3.80;75.50;100657.97;5116675;27;46095;-63
2023/03/11 00:31:06;;;;;;;;;17.67;15.67;;;;;3.78;76.01;100670.13;5117985;27;45747;-63
2023/03/11 00:33:31;;;;;;;;;8.00;8.00;;;;;3.73;74.40;100662.31;5118230;27;45493;-63
2023/03/11 00:35:57;;;;;;;;;14.67;11.00;;;;;3.69;75.41;100668.38;5118250;27;45488;-63
2023/03/11 00:38:22;;;;;;;;;12.67;12.00;;;;;3.66;75.28;100681.38;5117999;27;46089;-63
2023/03/11 00:40:48;;;;;;;;;9.67;8.33;;;;;3.62;75.40;100682.22;5117877;27;45447;-63
2023/03/11 00:43:14;;;;;;;;;12.67;11.67;;;;;3.58;74.88;100689.13;5117992;27;45400;-63
2023/03/11 00:45:40;;;;;;;;;16.33;11.00;;;;;3.54;76.58;100679.56;5116958;27;45691;-63
2023/03/11 00:48:07;;;;;;;;;77.75;60.25;;;;;3.55;74.50;100681.31;5117510;27;46630;-63
2023/03/11 00:50:35;;;;;;;;;27.00;22.67;;;;;3.51;75.32;100691.69;5117799;27;45422;-63
2023/03/11 00:53:03;;;;;;;;;13.33;11.67;;;;;3.55;77.17;100683.06;5117848;27;45218;-63
2023/03/11 00:55:31;;;;;;;;;11.00;6.33;;;;;3.55;76.97;100686.50;5117976;27;45241;-63
2023/03/11 00:57:59;;;;;;;;;14.33;11.33;;;;;3.53;75.70;100675.25;5117856;27;46116;-63
2023/03/11 01:00:25;;;;;;;;;14.33;11.00;;;;;3.49;76.30;100683.88;5118221;27;45496;-63
2023/03/11 01:02:53;;;;;;;;;11.33;11.33;;;;;3.32;76.46;100655.16;5118420;27;45220;-63
2023/03/11 01:05:20;;;;;;;;;16.00;13.00;;;;;3.40;77.31;100682.09;5118524;27;45413;-63
2023/03/11 01:07:46;;;;;;;;;10.67;10.33;;;;;3.30;76.43;100660.34;5117918;27;46302;-63
2023/03/11 01:10:12;;;;;;;;;14.00;12.00;;;;;3.37;76.85;100689.91;5118122;27;45433;-63
2023/03/11 01:12:37;;;;;;;;;17.33;17.33;;;;;3.36;77.61;100682.94;5118487;27;45303;-63
2023/03/11 01:15:03;;;;;;;;;13.67;12.33;;;;;3.33;76.42;100684.69;5118327;27;45377;-63
2023/03/11 01:17:29;;;;;;;;;12.00;9.33;;;;;3.23;76.13;100684.59;5118241;27;46526;-63
2023/03/11 01:19:54;;;;;;;;;15.33;11.00;;;;;3.27;76.23;100701.97;5118022;27;45391;-63
2023/03/11 01:22:19;;;;;;;;;12.67;10.67;;;;;3.28;75.52;100700.22;5118151;27;45450;-63
2023/03/11 01:24:45;;;;;;;;;10.33;10.00;;;;;3.23;76.04;100697.59;5118548;27;45339;-63
2023/03/11 01:27:10;;;;;;;;;15.67;12.67;;;;;3.22;76.95;100689.78;5117837;27;46176;-63
2023/03/11 01:29:36;;;;;;;;;18.67;15.00;;;;;3.30;76.90;100703.75;5119613;27;45295;-63
2023/03/11 01:32:01;;;;;;;;;18.00;14.00;;;;;3.28;76.85;100715.84;5121670;27;45413;-63
2023/03/11 01:34:26;;;;;;;;;16.67;12.33;;;;;3.21;75.67;100699.34;5121794;27;45410;-63
2023/03/11 01:36:52;;;;;;;;;16.00;13.33;;;;;3.24;76.75;100714.06;5121568;27;45433;-63
2023/03/11 01:39:17;;;;;;;;;12.33;11.33;;;;;3.22;76.13;100708.88;5121378;27;45404;-63
2023/03/11 01:41:42;;;;;;;;;15.00;14.67;;;;;3.21;76.52;100706.25;5121878;27;45304;-63
2023/03/11 01:44:10;;;;;;;;;9.33;9.00;;;;;3.08;76.24;100700.97;5121629;27;45456;-63
2023/03/11 01:46:58;;;;;;;;;10.00;10.00;;;;;3.12;77.13;100696.66;5121306;27;46125;-63
2023/03/11 01:49:24;;;;;;;;;15.67;12.00;;;;;3.07;76.42;100687.97;5121140;27;45349;-63
2023/03/11 01:51:52;;;;;;;;;18.00;13.67;;;;;3.07;76.34;100694.03;5121294;27;45422;-63
2023/03/11 01:54:22;;;;;;;;;19.33;13.00;;;;;3.07;77.93;100687.97;5121437;27;45306;-63
2023/03/11 01:56:49;;;;;;;;;19.33;16.00;;;;;3.11;77.91;100689.75;5121152;27;46535;-63
2023/03/11 01:59:18;;;;;;;;;18.67;13.33;;;;;3.04;77.06;100678.41;5121136;27;45325;-63
2023/03/11 02:02:00;;;;;;;;;20.33;16.00;;;;;3.01;77.99;100669.72;5121302;27;45367;-63
2023/03/11 02:04:28;;;;;;;;;17.33;12.00;;;;;3.05;78.75;100680.16;5121132;27;45446;-61
2023/03/11 02:06:55;;;;;;;;;15.00;12.00;;;;;3.07;78.44;100686.22;5120789;27;45416;-62
2023/03/11 02:09:22;;;;;;;;;17.33;14.67;;;;;3.10;78.34;100699.25;5120868;27;45440;-61
2023/03/11 02:11:49;;;;;;;;;19.00;13.33;;;;;3.09;78.51;100694.03;5120880;27;45286;-61
2023/03/11 02:14:15;;;;;;;;;14.00;13.67;;;;;3.10;78.12;100701.84;5120646;27;45399;-61
2023/03/11 02:16:40;;;;;;;;;22.33;14.00;;;;;3.18;78.21;100714.03;5120643;27;46450;-61
2023/03/11 02:19:20;;;;;;;;;15.00;15.00;;;;;3.11;78.07;100689.75;5120905;27;45339;-61
2023/03/11 02:21:45;;;;;;;;;15.67;12.00;;;;;3.19;77.29;100705.38;5121047;27;45446;-61
2023/03/11 02:24:22;;;;;;;;;16.00;15.00;;;;;3.19;77.85;100694.97;5120801;27;45209;-61
2023/03/11 02:26:57;;;;;;;;;17.00;13.00;;;;;3.18;77.28;100698.44;5120551;27;45535;-61
2023/03/11 02:29:25;;;;;;;;;20.00;20.00;;;;;3.20;77.79;100699.34;5120652;27;45233;-61
2023/03/11 02:31:51;;;;;;;;;19.33;14.33;;;;;2.91;78.23;100653.19;5120488;27;45329;-62
2023/03/11 02:34:29;;;;;;;;;17.00;15.00;;;;;3.22;78.63;100702.81;5120565;27;45489;-61
2023/03/11 02:36:55;;;;;;;;;18.67;18.67;;;;;3.22;78.51;100687.19;5120300;27;47201;-61
2023/03/11 02:39:35;;;;;;;;;12.33;10.33;;;;;3.28;78.42;100682.03;5120321;27;45928;-61
2023/03/11 02:42:05;;;;;;;;;16.33;13.33;;;;;3.30;79.10;100682.91;5120567;27;45287;-61
2023/03/11 02:44:32;;;;;;;;;12.67;11.00;;;;;3.30;78.38;100678.56;5120673;27;45257;-61
2023/03/11 02:46:58;;;;;;;;;12.33;12.33;;;;;3.35;78.37;100688.16;5120338;27;46156;-61
2023/03/11 02:49:24;;;;;;;;;15.33;14.33;;;;;3.30;78.60;100688.13;5120186;27;45457;-61
2023/03/11 02:51:51;;;;;;;;;10.33;8.00;;;;;3.34;78.30;100697.69;5120399;27;45405;-61
2023/03/11 02:54:16;;;;;;;;;21.33;15.67;;;;;3.36;77.98;100693.34;5120746;27;45598;-61
2023/03/11 02:56:42;;;;;;;;;14.33;14.33;;;;;3.19;78.18;100667.22;5120066;27;45492;-61
2023/03/11 02:59:07;;;;;;;;;16.00;12.33;;;;;2.99;78.35;100633.28;5120311;27;45489;-61
2023/03/11 03:01:32;;;;;;;;;12.00;12.00;;;;;3.23;77.97;100681.13;5120244;27;46200;-61
2023/03/11 03:03:58;;;;;;;;;20.67;15.33;;;;;3.33;78.60;100689.88;5120231;27;45485;-61
2023/03/11 03:06:23;;;;;;;;;21.33;15.00;;;;;3.30;78.44;100685.53;5119730;27;46680;-61
2023/03/11 03:08:49;;;;;;;;;15.33;13.67;;;;;3.30;78.89;100688.13;5119906;27;45356;-61
2023/03/11 03:11:15;;;;;;;;;16.00;15.00;;;;;3.31;78.75;100688.13;5120311;27;45417;-61
2023/03/11 03:13:40;;;;;;;;;14.33;13.67;;;;;3.29;78.74;100688.97;5120145;27;45424;-61
2023/03/11 03:16:05;;;;;;;;;17.00;15.67;;;;;3.22;78.89;100668.97;5119816;27;46403;-61
2023/03/11 03:18:31;;;;;;;;;15.33;14.67;;;;;3.10;78.77;100630.75;5119884;27;45279;-61
2023/03/11 03:20:56;;;;;;;;;14.67;10.67;;;;;3.37;78.86;100666.47;5119836;27;45506;-61
2023/03/11 03:23:22;;;;;;;;;14.67;13.00;;;;;3.32;78.40;100662.97;5120085;27;45252;-61
2023/03/11 03:25:47;;;;;;;;;17.00;15.00;;;;;3.30;77.48;100683.78;5119728;27;46372;-61
2023/03/11 03:28:12;;;;;;;;;18.67;15.00;;;;;3.27;78.40;100683.75;5119787;27;45262;-61
2023/03/11 03:30:38;;;;;;;;;21.00;15.33;;;;;3.17;77.79;100665.50;5119949;27;45445;-61
2023/03/11 03:33:05;;;;;;;;;17.00;11.67;;;;;3.08;77.08;100659.38;5119809;27;45295;-61
2023/03/11 03:35:31;;;;;;;;;12.33;10.33;;;;;3.04;77.78;100665.41;5119417;27;46540;-61
2023/03/11 03:37:57;;;;;;;;;13.00;10.00;;;;;3.13;77.68;100683.66;5119512;27;45361;-61
2023/03/11 03:40:23;;;;;;;;;17.33;12.67;;;;;2.96;77.08;100667.97;5119709;27;45468;-61
2023/03/11 03:42:48;;;;;;;;;13.33;13.33;;;;;2.94;77.80;100674.88;5119725;27;45305;-61
2023/03/11 03:45:13;;;;;;;;;16.00;14.67;;;;;2.85;78.48;100667.00;5119265;27;47136;-61
2023/03/11 03:47:39;;;;;;;;;18.67;15.33;;;;;2.88;79.05;100668.75;5119348;27;45449;-61
2023/03/11 03:50:06;;;;;;;;;20.67;15.67;;;;;2.98;79.46;100683.56;5119442;27;45271;-61
2023/03/11 03:52:34;;;;;;;;;14.33;14.33;;;;;2.72;78.31;100640.03;5118943;27;45313;-61
2023/03/11 03:54:59;;;;;;;;;21.67;15.00;;;;;2.95;77.99;100675.75;5119168;27;46501;-61
2023/03/11 03:57:25;;;;;;;;;15.67;9.67;;;;;2.85;77.75;100673.94;5119040;27;45299;-61
2023/03/11 03:59:50;;;;;;;;;13.33;10.00;;;;;2.84;78.12;100673.06;5119635;27;45401;-61
2023/03/11 04:02:15;;;;;;;;;16.00;12.33;;;;;2.81;78.68;100670.44;5119365;27;45488;-61
2023/03/11 04:04:41;;;;;;;;;16.67;12.33;;;;;2.71;78.32;100661.69;5118920;27;46429;-61
2023/03/11 04:07:06;;;;;;;;;12.67;12.67;;;;;2.71;79.42;100674.69;5119074;27;45464;-61
2023/03/11 04:09:32;;;;;;;;;14.67;12.00;;;;;2.78;78.68;100678.22;5119233;27;45459;-61
2023/03/11 04:11:59;;;;;;;;;24.33;20.33;;;;;2.69;78.79;100673.81;5119088;27;45506;-61
2023/03/11 04:14:24;;;;;;;;;14.67;10.00;;;;;2.56;78.87;100656.38;5118852;27;45520;-61
2023/03/11 04:16:50;;;;;;;;;17.33;15.67;;;;;2.65;79.78;100677.25;5119030;27;45410;-61
2023/03/11 04:19:15;;;;;;;;;12.00;11.33;;;;;2.69;78.96;100681.63;5119140;27;45315;-61
2023/03/11 04:21:40;;;;;;;;;15.67;15.00;;;;;2.64;79.46;100679.81;5119162;27;45403;-61
2023/03/11 04:24:06;;;;;;;;;15.33;12.67;;;;;2.56;79.02;100685.81;5118888;27;46191;-61
2023/03/11 04:26:31;;;;;;;;;16.67;14.00;;;;;2.57;78.57;100687.56;5118696;27;45438;-61
2023/03/11 04:28:57;;;;;;;;;18.67;18.67;;;;;2.51;79.51;100689.25;5119102;27;45640;-61
2023/03/11 04:31:22;;;;;;;;;15.67;13.33;;;;;2.43;79.24;100691.78;5118811;27;45242;-61
2023/03/11 04:33:47;;;;;;;;;24.00;17.33;;;;;2.50;80.68;100696.19;5118761;27;46480;-61
2023/03/11 04:36:13;;;;;;;;;20.33;13.67;;;;;2.54;80.80;100705.75;5118860;27;45220;-61
2023/03/11 04:38:38;;;;;;;;;12.00;11.33;;;;;2.55;81.08;100701.41;5118812;27;45504;-61
2023/03/11 04:41:05;;;;;;;;;18.33;14.00;;;;;2.55;80.70;100704.00;5119143;27;45392;-61
2023/03/11 04:43:32;;;;;;;;;12.33;11.33;;;;;2.47;80.61;100698.75;5118531;27;45686;-61
2023/03/11 04:45:57;;;;;;;;;16.67;15.00;;;;;2.44;79.89;100696.13;5118325;27;45370;-61
2023/03/11 04:48:24;;;;;;;;;16.33;16.33;;;;;2.44;80.31;100703.91;5118527;27;45378;-61
2023/03/11 04:50:49;;;;;;;;;21.67;15.67;;;;;2.39;79.25;100703.84;5118662;27;45502;-61
2023/03/11 04:53:15;;;;;;;;;16.00;11.00;;;;;2.33;79.24;100693.41;5134263;27;46129;-61
2023/03/11 04:55:40;;;;;;;;;19.33;12.67;;;;;2.20;78.92;100691.53;5118222;27;45348;-61
2023/03/11 04:58:06;;;;;;;;;18.00;15.00;;;;;2.08;78.88;100703.53;5118474;27;45398;-61
2023/03/11 05:00:31;;;;;;;;;15.67;12.33;;;;;2.11;80.56;100714.78;5118773;27;45387;-61
2023/03/11 05:02:56;;;;;;;;;19.33;14.33;;;;;1.87;80.54;100666.94;5118232;27;45512;-61
2023/03/11 05:05:22;;;;;;;;;16.00;13.67;;;;;2.11;80.51;100715.69;5121057;27;45422;-61
2023/03/11 05:07:47;;;;;;;;;14.00;9.33;;;;;2.02;81.07;100706.06;5121929;27;45475;-61
2023/03/11 05:10:14;;;;;;;;;15.33;14.00;;;;;2.13;80.79;100723.50;5122172;27;45657;-61
2023/03/11 05:12:40;;;;;;;;;14.00;14.00;;;;;2.15;80.16;100724.38;5121960;27;46379;-63
2023/03/11 05:15:06;;;;;;;;;12.33;11.00;;;;;2.13;81.22;100731.28;5121683;27;45378;-64
2023/03/11 05:17:31;;;;;;;;;17.00;15.33;;;;;2.12;81.73;100717.44;5121913;27;45201;-63
2023/03/11 05:19:57;;;;;;;;;22.33;18.67;;;;;2.05;81.19;100697.44;5121769;27;45423;-63
2023/03/11 05:22:22;;;;;;;;;20.67;15.33;;;;;2.07;79.64;100714.75;5121589;27;47233;-63
2023/03/11 05:24:48;;;;;;;;;16.00;14.67;;;;;1.99;81.69;100713.81;5121929;27;45421;-63
2023/03/11 05:27:18;;;;;;;;;24.00;16.33;;;;;1.96;80.00;100705.13;5121688;27;45325;-63
2023/03/11 05:29:44;;;;;;;;;16.33;14.67;;;;;1.96;80.52;100713.78;5122020;27;45236;-63
2023/03/11 05:32:10;;;;;;;;;19.00;16.33;;;;;1.92;80.74;100720.66;5119938;27;46166;-63
2023/03/11 05:34:36;;;;;;;;;20.67;16.33;;;;;1.96;81.91;100724.19;5121584;27;45315;-63
2023/03/11 05:37:01;;;;;;;;;22.67;14.67;;;;;1.96;80.74;100716.38;5121616;27;45438;-63
2023/03/11 05:39:27;;;;;;;;;18.00;16.50;;;;;1.87;80.85;100718.84;5121862;27;45643;-63
2023/03/11 05:41:52;;;;;;;;;14.33;14.00;;;;;1.87;81.61;100731.84;5121438;27;45453;-63
2023/03/11 05:44:17;;;;;;;;;16.33;14.67;;;;;1.94;82.35;100733.66;5121361;27;45379;-63
2023/03/11 05:46:43;;;;;;;;;19.33;14.00;;;;;1.96;81.16;100741.47;5121551;27;45322;-63
2023/03/11 05:49:08;;;;;;;;;14.67;14.33;;;;;1.88;80.67;100737.03;5121707;27;45490;-64
2023/03/11 05:51:34;;;;;;;;;14.00;12.33;;;;;1.91;81.08;100744.88;5120931;27;46480;-64
2023/03/11 05:53:59;;;;;;;;;19.00;15.00;;;;;1.96;81.45;100747.53;5121438;27;45428;-63
2023/03/11 05:56:25;;;;;;;;;15.00;15.00;;;;;1.83;80.09;100730.94;5121413;27;45413;-64
2023/03/11 05:58:50;;;;;;;;;15.33;13.67;;;;;1.85;80.57;100744.78;5121517;27;45363;-63
2023/03/11 06:01:18;;;;;;;;;14.33;14.33;;;;;1.90;81.11;100758.72;5121197;27;45607;-63
2023/03/11 06:03:43;;;;;;;;;19.00;16.00;;;;;1.92;81.24;100763.94;5120812;27;45397;-63
2023/03/11 06:06:10;;;;;;;;;21.00;14.00;;;;;1.83;80.83;100751.72;5121205;27;45516;-64
2023/03/11 06:08:36;;;;;;;;;22.67;19.00;;;;;1.94;81.59;100764.81;5112644;27;45377;-63
2023/03/11 06:11:05;;;;;;;;;13.67;13.33;;;;;2.01;81.16;100769.22;5109584;27;46288;-63
2023/03/11 06:13:30;;;;;;;;;12.33;11.67;;;;;2.00;81.05;100766.63;5099540;27;45387;-63
2023/03/11 06:15:56;;;;;;;;;20.00;16.00;;;;;2.03;80.49;100761.47;5098770;27;45409;-63
2023/03/11 06:18:21;;;;;;;;;19.33;17.67;;;;;1.99;80.56;100775.25;5099405;27;45335;-64
2023/03/11 06:20:46;;;;;;;;;20.33;19.00;;;;;1.99;82.13;100763.16;5098899;27;47220;-63
2023/03/11 06:23:12;;;;;;;;;24.33;21.33;;;;;2.07;81.85;100764.09;5098905;27;45460;-63
2023/03/11 06:25:37;;;;;;;;;24.67;23.00;;;;;2.10;82.25;100760.69;5099409;27;45303;-64
2023/03/11 06:28:02;;;;;;;;;20.00;18.33;;;;;2.19;81.35;100775.50;5099188;27;45481;-64
2023/03/11 06:30:28;;;;;;;;;17.67;15.00;;;;;2.18;82.09;100774.66;5098936;27;46151;-64
2023/03/11 06:32:54;;;;;;;;;20.00;16.67;;;;;2.17;81.71;100765.09;5099057;27;45244;-64
2023/03/11 06:35:19;;;;;;;;;22.00;19.00;;;;;2.29;80.52;100779.09;5098707;27;45314;-63
2023/03/11 06:37:45;;;;;;;;;21.33;16.67;;;;;2.39;80.92;100778.34;5099309;27;45506;-63
2023/03/11 06:40:11;;;;;;;;;19.00;15.67;;;;;2.59;80.58;100774.22;5098493;27;46565;-63
2023/03/11 06:42:36;;;;;;;;;28.33;19.67;;;;;2.95;80.17;100785.84;5098570;27;45161;-64
2023/03/11 06:45:01;;;;;;;;;19.33;16.67;;;;;3.36;77.44;100768.81;5098995;27;45271;-63
2023/03/11 06:47:27;;;;;;;;;17.33;16.00;;;;;3.59;76.18;100786.34;5099024;27;45304;-63
2023/03/11 06:49:52;;;;;;;;;25.00;20.33;;;;;3.46;76.16;100793.19;5098506;27;46230;-63
2023/03/11 06:52:19;;;;;;;;;21.33;17.67;;;;;3.27;76.28;100780.03;5098084;27;45425;-63
2023/03/11 06:54:45;;;;;;;;;18.67;15.00;;;;;3.19;77.28;100793.84;5098755;27;46079;-63
2023/03/11 06:57:10;;;;;;;;;21.67;16.67;;;;;2.69;76.94;100736.19;5098646;27;45429;-63
2023/03/11 06:59:36;;;;;;;;;20.00;17.00;;;;;2.95;77.50;100792.78;5098127;27;46502;-62
2023/03/11 07:02:02;;;;;;;;;20.00;17.00;;;;;2.95;78.25;100803.19;5098288;27;45399;-61
2023/03/11 07:04:28;;;;;;;;;24.00;16.33;;;;;2.87;77.53;100797.03;5098217;27;45343;-61
2023/03/11 07:06:54;;;;;;;;;18.67;18.00;;;;;2.84;77.97;100797.88;5055517;27;1200460;-62
2023/03/11 07:09:21;;;;;;;;;22.67;17.33;;;;;2.93;79.01;100808.38;5099403;27;46067;-61
2023/03/11 07:11:46;;;;;;;;;18.00;16.00;;;;;2.95;78.00;100809.25;5099169;27;45175;-61
2023/03/11 07:14:12;;;;;;;;;24.67;18.33;;;;;3.03;79.06;100805.84;5099584;27;45175;-61
2023/03/11 07:16:37;;;;;;;;;27.33;21.33;;;;;3.88;79.09;100817.75;5099485;27;45453;-61
2023/03/11 07:19:03;;;;;;;;;24.00;23.67;;;;;5.06;74.65;100770.31;5099161;27;46454;-61
2023/03/11 07:21:30;;;;;;;;;24.67;18.00;;;;;6.25;70.21;100814.53;5099236;27;45418;-61
2023/03/11 07:23:58;;;;;;;;;25.00;25.00;;;;;6.48;66.64;100810.97;5099269;27;45440;-61
2023/03/11 07:26:24;;;;;;;;;22.33;16.67;;;;;6.05;66.93;100782.38;5099091;27;45459;-61
2023/03/11 07:28:49;;;;;;;;;29.33;24.33;;;;;6.16;68.21;100827.66;5098473;27;45308;-61
2023/03/11 07:31:18;;;;;;;;;24.67;23.33;;;;;6.49;69.28;100819.66;5098811;27;45303;-61
2023/03/11 07:33:43;;;;;;;;;22.00;19.33;;;;;6.91;65.89;100818.56;5098999;27;45427;-62
2023/03/11 07:36:15;;;;;;;;;24.67;18.00;;;;;6.67;66.42;100832.66;5099138;27;45576;-63
2023/03/11 07:38:41;;;;;;;;;24.33;20.33;;;;;6.51;67.56;100839.72;5098809;27;45597;-63
2023/03/11 07:41:07;;;;;;;;;18.33;16.67;;;;;6.21;68.68;100820.66;5099122;27;45249;-63
2023/03/11 07:43:32;;;;;;;;;22.33;18.00;;;;;5.93;68.54;100835.53;5098996;27;45437;-63
2023/03/11 07:46:05;;;;;;;;;25.00;20.67;;;;;5.72;68.62;100841.63;5099360;27;45358;-63
2023/03/11 07:48:30;;;;;;;;;29.33;24.67;;;;;5.72;69.41;100829.47;5098632;27;45308;-61
2023/03/11 07:51:04;;;;;;;;;27.67;24.67;;;;;5.95;69.69;100835.50;5098671;27;45220;-61
2023/03/11 07:53:30;;;;;;;;;22.00;19.33;;;;;6.05;68.41;100845.97;5098890;27;45343;-61
2023/03/11 07:55:57;;;;;;;;;28.33;23.33;;;;;6.02;68.44;100837.28;5098763;27;45205;-61
2023/03/11 07:58:22;;;;;;;;;28.67;22.67;;;;;6.24;68.38;100848.53;5098576;27;45532;-61
2023/03/11 08:00:47;;;;;;;;;24.67;22.00;;;;;6.07;67.79;100798.91;5098242;27;45356;-61
2023/03/11 08:03:13;;;;;;;;;22.00;21.67;;;;;6.48;68.05;100846.69;5098488;27;45370;-61
2023/03/11 08:05:38;;;;;;;;;29.00;23.00;;;;;6.67;66.85;100844.88;5098873;27;45396;-61
2023/03/11 08:08:03;;;;;;;;;27.00;22.33;;;;;6.87;65.21;100863.97;5098097;27;45427;-61
2023/03/11 08:10:29;;;;;;;;;35.00;26.67;;;;;6.93;65.42;100848.22;5097514;27;45419;-61
2023/03/11 08:12:54;;;;;;;;;25.33;21.33;;;;;7.20;64.88;100867.22;5109535;27;45485;-62
2023/03/11 08:15:19;;;;;;;;;15.67;15.67;;;;;7.48;63.45;100857.41;5118445;27;45245;-63
2023/03/11 08:17:45;;;;;;;;;19.67;17.67;;;;;7.55;62.69;100841.66;5119203;27;46724;-64
2023/03/11 08:20:11;;;;;;;;;21.67;19.00;;;;;7.60;63.53;100866.94;5118188;27;45878;-61
2023/03/11 08:22:37;;;;;;;;;23.33;21.00;;;;;7.66;64.07;100860.75;5118004;27;45298;-62
2023/03/11 08:25:02;;;;;;;;;35.33;34.00;;;;;7.83;63.09;100866.72;5118148;27;45314;-62
2023/03/11 08:27:28;;;;;;;;;21.00;19.67;;;;;7.93;63.44;100870.13;5117867;27;47298;-62
2023/03/11 08:29:53;;;;;;;;;18.67;18.33;;;;;8.00;62.51;100866.56;5118418;27;45365;-61
2023/03/11 08:32:18;;;;;;;;;20.33;20.00;;;;;8.12;62.47;100862.09;5118199;27;45521;-61
2023/03/11 08:34:44;;;;;;;;;22.33;17.00;;;;;8.23;62.15;100873.31;5118255;27;45318;-61
2023/03/11 08:37:09;;;;;;;;;20.67;18.33;;;;;8.25;62.03;100858.44;5117783;27;46690;-62
2023/03/11 08:39:35;;;;;;;;;29.00;25.33;;;;;8.40;63.02;100885.38;5117522;27;45213;-62
2023/03/11 08:42:01;;;;;;;;;15.33;13.00;;;;;8.38;61.69;100885.41;5118263;27;45231;-62
2023/03/11 08:44:27;;;;;;;;;12.00;10.33;;;;;8.29;62.02;100881.13;5118005;27;45185;-62
2023/03/11 08:46:53;;;;;;;;;23.33;19.00;;;;;8.27;60.99;100892.50;5116426;27;46495;-62
2023/03/11 08:49:18;;;;;;;;;9.67;7.33;;;;;8.28;60.82;100896.88;5115029;27;45364;-62
2023/03/11 08:51:43;;;;;;;;;12.33;11.00;;;;;8.31;62.03;100891.59;5117692;27;45415;-61
2023/03/11 08:54:09;;;;;;;;;70.33;55.67;;;;;8.40;60.84;100896.72;5118168;27;45360;-62
2023/03/11 08:56:34;;;;;;;;;14.00;9.33;;;;;8.46;61.70;100895.81;5117338;27;45414;-61
2023/03/11 08:59:01;;;;;;;;;9.00;7.33;;;;;8.56;60.41;100907.94;5117684;27;45343;-61
2023/03/11 09:01:28;;;;;;;;;8.00;5.33;;;;;8.67;60.30;100902.56;5117669;27;45468;-61
2023/03/11 09:03:54;;;;;;;;;10.00;10.00;;;;;8.74;59.58;100887.59;5117546;27;45392;-62
2023/03/11 09:06:20;;;;;;;;;15.67;12.00;;;;;8.95;61.48;100905.72;5117429;27;45452;-63
2023/03/11 09:08:46;;;;;;;;;10.00;10.00;;;;;9.06;60.97;100900.28;5117188;27;45532;-63
2023/03/11 09:11:13;;;;;;;;;14.00;10.67;;;;;9.49;60.35;100888.28;5117511;27;45418;-63
2023/03/11 09:13:39;;;;;;;;;15.00;11.00;;;;;9.58;59.84;100910.03;5114947;27;45390;-63
2023/03/11 09:16:07;;;;;;;;;12.00;9.33;;;;;9.57;58.98;100904.81;5117046;27;47354;-64
2023/03/11 09:18:33;;;;;;;;;20.33;15.00;;;;;9.64;59.05;100919.56;5117520;27;45482;-64
2023/03/11 09:20:59;;;;;;;;;12.00;11.00;;;;;10.43;57.88;100895.41;5114517;27;45280;-63
2023/03/11 09:23:25;;;;;;;;;5.67;5.33;;;;;10.40;56.75;100884.09;5117542;27;45480;-63
2023/03/11 09:25:50;;;;;;;;;3.00;2.00;;;;;10.50;51.54;100898.78;5117357;27;47472;-63
2023/03/11 09:28:16;;;;;;;;;4.00;2.00;;;;;10.71;51.52;100907.16;5117253;27;45471;-63
2023/03/11 09:30:41;;;;;;;;;4.50;3.00;;;;;10.96;52.62;100905.72;5117565;27;45284;-64
2023/03/11 09:33:07;;;;;;;;;5.33;4.00;;;;;11.01;52.45;100907.38;5117559;27;45424;-63
2023/03/11 09:35:33;;;;;;;;;4.00;4.00;;;;;11.26;48.70;100891.91;5117019;27;46606;-62
2023/03/11 09:37:59;;;;;;;;;6.25;5.00;;;;;11.43;50.98;100884.44;5114459;27;45946;-63
2023/03/11 09:40:31;;;;;;;;;4.75;4.75;;;;;12.07;51.20;100891.66;5117306;27;45439;-63
2023/03/11 09:43:20;;;;;;;;;4.25;2.00;;;;;12.97;50.93;100892.63;5117268;27;45437;-62
2023/03/11 09:45:54;;;;;;;;;5.00;5.00;;;;;13.43;47.72;100881.56;5114501;27;45751;-64
2023/03/11 09:48:36;;;;;;;;;5.25;3.00;;;;;14.18;46.39;100875.50;5114401;27;45334;-64
2023/03/11 09:51:14;;;;;;;;;5.50;2.00;;;;;15.34;49.86;100871.13;5116706;27;45389;-64
2023/03/11 09:53:43;;;;;;;;;17.67;15.67;;;;;15.75;43.67;100863.22;5116702;27;45328;-62
2023/03/11 09:56:13;;;;;;;;;9.33;6.67;;;;;15.70;42.67;100855.47;5119026;27;46471;-62
2023/03/11 09:58:45;;;;;;;;;9.00;7.67;;;;;15.44;45.98;100869.81;5117811;27;45469;-62
2023/03/11 10:01:23;;;;;;;;;6.25;6.00;;;;;14.97;43.79;100858.41;5120203;27;45546;-62
2023/03/11 10:03:53;;;;;;;;;6.25;4.00;;;;;14.58;46.10;100848.41;5134902;27;45482;-62
2023/03/11 10:06:24;;;;;;;;;3.00;3.00;;;;;14.74;42.38;100869.03;5120109;27;46130;-62
2023/03/11 10:09:33;;;;;;;;;3.25;2.50;;;;;14.87;45.06;100885.31;5119859;27;45401;-63
2023/03/11 10:12:04;;;;;;;;;6.50;4.00;;;;;14.92;40.39;100892.19;5120070;27;45323;-63
2023/03/11 10:15:00;;;;;;;;;2.00;1.25;;;;;14.83;43.64;100891.66;5120388;27;45304;-62
2023/03/11 10:17:40;;;;;;;;;3.75;0.00;;;;;14.56;41.89;100894.41;5118076;27;45702;-65
2023/03/11 10:20:11;;;;;;;;;3.00;2.00;;;;;15.48;42.94;100893.50;5118399;27;45483;-63
2023/03/11 10:23:05;;;;;;;;;2.50;1.00;;;;;16.10;39.18;100892.75;5119965;27;45383;-63
2023/03/11 10:25:56;;;;;;;;;6.75;1.00;;;;;15.95;42.14;100894.28;5119205;27;45386;-63
2023/03/11 10:28:32;;;;;;;;;3.50;1.00;;;;;15.40;39.43;100902.72;5116997;27;46420;-62
2023/03/11 10:31:24;;;;;;;;;1.50;1.00;;;;;14.94;39.49;100902.72;5119523;27;45411;-63
2023/03/11 10:33:56;;;;;;;;;3.25;2.00;;;;;14.49;40.96;100912.31;5116166;27;45550;-63
2023/03/11 10:36:28;;;;;;;;;1.75;1.00;;;;;14.18;39.81;100910.78;5120129;27;45469;-63
2023/03/11 10:38:54;;;;;;;;;1.00;1.00;;;;;13.86;39.81;100912.75;5120153;27;45418;-64
2023/03/11 10:41:30;;;;;;;;;2.75;2.00;;;;;13.90;43.32;100905.56;5120101;27;45357;-64
2023/03/11 10:44:04;;;;;;;;;3.75;1.25;;;;;13.96;42.22;100907.16;5120362;27;45542;-64
2023/03/11 10:46:30;;;;;;;;;2.50;1.00;;;;;13.79;41.27;100886.53;5120681;27;45661;-64
2023/03/11 10:48:56;;;;;;;;;1.50;0.75;;;;;13.64;42.61;100880.84;5120311;27;45466;-63
2023/03/11 10:51:26;;;;;;;;;3.25;2.00;;;;;13.65;42.57;100893.16;5120330;27;45337;-63
2023/03/11 10:53:51;;;;;;;;;3.00;3.00;;;;;13.49;42.57;100898.09;5119756;27;45295;-63
2023/03/11 10:56:37;;;;;;;;;2.50;1.00;;;;;13.00;42.14;100899.63;5119118;27;45572;-63
2023/03/11 10:59:19;;;;;;;;;4.00;2.25;;;;;12.78;43.46;100902.00;5120187;27;46516;-63
2023/03/11 11:01:56;;;;;;;;;1.00;1.00;;;;;12.54;41.87;100885.97;5118665;27;45246;-63
2023/03/11 11:04:42;;;;;;;;;1.00;1.00;;;;;12.66;43.43;100906.75;5120177;27;45431;-63
2023/03/11 11:07:34;;;;;;;;;1.00;1.00;;;;;12.56;42.81;100901.78;5119733;27;45190;-63
2023/03/11 11:10:15;;;;;;;;;1.75;1.50;;;;;12.47;42.84;100903.75;5119794;27;46203;-63
2023/03/11 11:12:55;;;;;;;;;1.50;1.00;;;;;12.36;42.53;100904.06;5119545;27;45384;-63
2023/03/11 11:15:25;;;;;;;;;1.75;1.75;;;;;12.36;43.46;100909.34;5119944;27;45444;-63
2023/03/11 11:17:54;;;;;;;;;3.00;3.00;;;;;12.28;43.32;100899.91;5120120;27;45445;-63
2023/03/11 11:20:23;;;;;;;;;3.00;3.00;;;;;12.14;42.66;100893.22;5119570;27;46620;-63
2023/03/11 11:22:52;;;;;;;;;5.00;2.50;;;;;12.00;41.87;100885.66;5119532;27;45437;-63